createdAt,value
2023-04-21T00:00:06.977Z,94
2023-04-21T00:00:31.445Z,94
2023-04-21T00:01:09.712Z,94
2023-04-21T00:01:41.627Z,94
2023-04-21T00:02:07.296Z,94
2023-04-21T00:02:36.144Z,94
2023-04-21T00:02:55.552Z,94
2023-04-21T00:03:33.702Z,94
2023-04-21T00:03:59.625Z,94
2023-04-21T00:04:31.619Z,94
2023-04-21T00:05:10.008Z,94
2023-04-21T00:05:41.885Z,94
2023-04-21T00:06:13.173Z,94
2023-04-21T00:06:35.804Z,94
2023-04-21T00:06:58.120Z,94
2023-04-21T00:07:27.399Z,94
2023-04-21T00:08:05.487Z,94
2023-04-21T00:08:38.714Z,94
2023-04-21T00:09:03.301Z,94
2023-04-21T00:09:34.896Z,94
2023-04-21T00:10:14.260Z,94
2023-04-21T00:10:34.963Z,94
2023-04-21T00:10:57.428Z,94
2023-04-21T00:11:27.330Z,94
2023-04-21T00:11:59.281Z,94
2023-04-21T00:12:31.448Z,94
2023-04-21T00:13:03.231Z,94
2023-04-21T00:13:41.395Z,94
2023-04-21T00:14:07.363Z,94
2023-04-21T00:14:35.092Z,94
2023-04-21T00:15:01.693Z,94
2023-04-21T00:15:27.340Z,94
2023-04-21T00:16:05.543Z,94
2023-04-21T00:16:32.196Z,94
2023-04-21T00:17:09.376Z,94
2023-04-21T00:17:34.953Z,94
2023-04-21T00:18:08.112Z,94
2023-04-21T00:18:41.277Z,94
2023-04-21T00:19:17.608Z,94
2023-04-21T00:19:40.841Z,94
2023-04-21T00:19:59.333Z,94
2023-04-21T00:20:38.004Z,94
2023-04-21T00:21:03.235Z,94
2023-04-21T00:21:41.382Z,94
2023-04-21T00:22:08.509Z,94
2023-04-21T00:22:34.956Z,94
2023-04-21T00:23:01.261Z,94
2023-04-21T00:23:27.967Z,94
2023-04-21T00:23:59.360Z,94
2023-04-21T00:24:37.580Z,94
2023-04-21T00:25:03.480Z,94
2023-04-21T00:25:34.922Z,94
2023-04-21T00:26:14.265Z,94
2023-04-21T00:26:36.928Z,94
2023-04-21T00:26:59.648Z,94
2023-04-21T00:27:27.287Z,94
2023-04-21T00:27:59.328Z,94
2023-04-21T00:28:38.764Z,94
2023-04-21T00:29:03.242Z,94
2023-04-21T00:29:34.877Z,94
2023-04-21T00:30:08.469Z,94
2023-04-21T00:30:35.000Z,94
2023-04-21T00:30:57.450Z,94
2023-04-21T00:31:33.428Z,94
2023-04-21T00:32:05.265Z,94
2023-04-21T00:32:31.470Z,94
2023-04-21T00:33:10.359Z,94
2023-04-21T00:33:34.933Z,94
2023-04-21T00:34:07.535Z,94
2023-04-21T00:34:36.439Z,94
2023-04-21T00:34:59.035Z,94
2023-04-21T00:35:33.760Z,94
2023-04-21T00:35:59.437Z,94
2023-04-21T00:36:32.098Z,94
2023-04-21T00:37:09.436Z,94
2023-04-21T00:37:35.538Z,94
2023-04-21T00:38:07.594Z,94
2023-04-21T00:38:40.836Z,94
2023-04-21T00:39:12.177Z,94
2023-04-21T00:39:34.878Z,94
2023-04-21T00:39:59.347Z,94
2023-04-21T00:40:38.411Z,94
2023-04-21T00:41:03.258Z,94
2023-04-21T00:41:40.865Z,94
2023-04-21T00:42:08.203Z,94
2023-04-21T00:42:37.281Z,94
2023-04-21T00:42:55.259Z,94
2023-04-21T00:43:34.006Z,94
2023-04-21T00:43:59.370Z,94
2023-04-21T00:44:31.383Z,94
2023-04-21T00:45:04.438Z,94
2023-04-21T00:45:40.977Z,94
2023-04-21T00:46:13.617Z,94
2023-04-21T00:46:58.829Z,94
2023-04-21T00:47:27.488Z,94
2023-04-21T00:48:05.429Z,94
2023-04-21T00:48:37.953Z,94
2023-04-21T00:49:09.263Z,94
2023-04-21T00:49:40.842Z,94
2023-04-21T00:50:08.306Z,94
2023-04-21T00:50:41.235Z,94
2023-04-21T00:51:11.253Z,94
2023-04-21T00:51:41.315Z,94
2023-04-21T00:52:03.873Z,94
2023-04-21T00:52:37.257Z,95
2023-04-21T00:53:09.414Z,94
2023-04-21T00:53:34.919Z,94
2023-04-21T00:54:08.169Z,94
2023-04-21T00:54:40.859Z,95
2023-04-21T00:55:11.452Z,94
2023-04-21T00:55:35.708Z,94
2023-04-21T00:56:05.081Z,94
2023-04-21T00:56:31.449Z,95
2023-04-21T00:57:10.292Z,95
2023-04-21T00:57:40.819Z,95
2023-04-21T00:58:13.356Z,94
2023-04-21T00:58:36.693Z,95
2023-04-21T00:59:11.301Z,95
2023-04-21T00:59:35.458Z,94
2023-04-21T01:00:06.549Z,95
2023-04-21T01:00:37.087Z,95
2023-04-21T01:01:09.596Z,95
2023-04-21T01:01:35.660Z,95
2023-04-21T01:02:13.463Z,95
2023-04-21T01:02:35.899Z,95
2023-04-21T01:02:59.717Z,95
2023-04-21T01:03:33.737Z,95
2023-04-21T01:03:59.569Z,95
2023-04-21T01:04:37.654Z,95
2023-04-21T01:05:03.541Z,95
2023-04-21T01:05:41.130Z,95
2023-04-21T01:06:07.220Z,95
2023-04-21T01:06:34.955Z,95
2023-04-21T01:06:57.475Z,95
2023-04-21T01:07:27.314Z,95
2023-04-21T01:07:59.491Z,95
2023-04-21T01:08:31.396Z,95
2023-04-21T01:09:09.550Z,95
2023-04-21T01:09:35.448Z,95
2023-04-21T01:10:07.408Z,95
2023-04-21T01:10:35.478Z,95
2023-04-21T01:10:58.752Z,95
2023-04-21T01:11:27.350Z,95
2023-04-21T01:12:02.857Z,95
2023-04-21T01:12:38.666Z,95
2023-04-21T01:13:03.288Z,95
2023-04-21T01:13:41.345Z,95
2023-04-21T01:14:13.285Z,95
2023-04-21T01:14:36.154Z,95
2023-04-21T01:14:55.293Z,95
2023-04-21T01:15:33.487Z,95
2023-04-21T01:16:05.699Z,95
2023-04-21T01:16:32.125Z,95
2023-04-21T01:17:03.449Z,95
2023-04-21T01:17:41.261Z,95
2023-04-21T01:18:08.481Z,95
2023-04-21T01:18:40.864Z,95
2023-04-21T01:19:17.858Z,95
2023-04-21T01:19:40.694Z,95
2023-04-21T01:19:59.236Z,95
2023-04-21T01:20:32.198Z,95
2023-04-21T01:21:09.988Z,95
2023-04-21T01:21:40.810Z,95
2023-04-21T01:22:13.497Z,95
2023-04-21T01:22:36.875Z,95
2023-04-21T01:23:17.216Z,95
2023-04-21T01:23:34.939Z,95
2023-04-21T01:24:06.428Z,95
2023-04-21T01:24:37.445Z,95
2023-04-21T01:25:03.411Z,95
2023-04-21T01:25:40.933Z,95
2023-04-21T01:26:13.264Z,95
2023-04-21T01:26:41.934Z,95
2023-04-21T01:27:11.268Z,95
2023-04-21T01:27:34.917Z,95
2023-04-21T01:28:05.240Z,95
2023-04-21T01:28:37.256Z,95
2023-04-21T01:29:03.926Z,95
2023-04-21T01:29:35.628Z,95
2023-04-21T01:30:13.591Z,95
2023-04-21T01:30:40.915Z,95
2023-04-21T01:31:12.187Z,95
2023-04-21T01:31:35.288Z,95
2023-04-21T01:32:21.198Z,95
2023-04-21T01:32:43.789Z,95
2023-04-21T01:33:07.055Z,95
2023-04-21T01:33:35.259Z,95
2023-04-21T01:34:13.949Z,95
2023-04-21T01:34:40.869Z,95
2023-04-21T01:35:11.402Z,95
2023-04-21T01:35:41.827Z,95
2023-04-21T01:36:04.352Z,95
2023-04-21T01:36:31.469Z,95
2023-04-21T01:37:09.652Z,95
2023-04-21T01:37:35.215Z,95
2023-04-21T01:38:14.368Z,95
2023-04-21T01:38:34.998Z,95
2023-04-21T01:38:57.460Z,95
2023-04-21T01:39:27.303Z,95
2023-04-21T01:40:05.504Z,95
2023-04-21T01:40:31.428Z,95
2023-04-21T01:41:10.002Z,95
2023-04-21T01:41:34.979Z,95
2023-04-21T01:42:07.241Z,95
2023-04-21T01:42:41.731Z,95
2023-04-21T01:43:11.282Z,95
2023-04-21T01:43:40.916Z,95
2023-04-21T01:43:59.393Z,95
2023-04-21T01:44:37.450Z,95
2023-04-21T01:45:09.462Z,95
2023-04-21T01:45:40.903Z,95
2023-04-21T01:46:07.369Z,95
2023-04-21T01:46:41.726Z,95
2023-04-21T01:47:11.267Z,95
2023-04-21T01:47:34.972Z,95
2023-04-21T01:47:59.382Z,95
2023-04-21T01:48:31.666Z,95
2023-04-21T01:49:09.727Z,95
2023-04-21T01:49:34.908Z,95
2023-04-21T01:50:13.816Z,95
2023-04-21T01:50:36.690Z,95
2023-04-21T01:51:01.308Z,95
2023-04-21T01:51:27.402Z,95
2023-04-21T01:52:16.029Z,95
2023-04-21T01:52:40.840Z,95
2023-04-21T01:53:03.436Z,95
2023-04-21T01:53:35.753Z,95
2023-04-21T01:54:13.448Z,95
2023-04-21T01:54:35.045Z,95
2023-04-21T01:54:57.972Z,95
2023-04-21T01:55:33.314Z,95
2023-04-21T01:56:05.515Z,95
2023-04-21T01:56:38.274Z,95
2023-04-21T01:57:03.308Z,95
2023-04-21T01:57:40.818Z,95
2023-04-21T01:58:14.289Z,95
2023-04-21T01:58:34.944Z,95
2023-04-21T01:58:57.481Z,95
2023-04-21T01:59:33.380Z,95
2023-04-21T01:59:59.393Z,95
2023-04-21T02:00:31.712Z,95
2023-04-21T02:01:04.195Z,95
2023-04-21T02:01:41.178Z,95
2023-04-21T02:02:07.368Z,95
2023-04-21T02:02:49.459Z,95
2023-04-21T02:03:12.038Z,95
2023-04-21T02:03:35.183Z,95
2023-04-21T02:04:05.425Z,95
2023-04-21T02:04:32.236Z,95
2023-04-21T02:05:03.459Z,95
2023-04-21T02:05:41.032Z,95
2023-04-21T02:06:13.973Z,95
2023-04-21T02:06:36.909Z,95
2023-04-21T02:07:01.169Z,95
2023-04-21T02:07:34.019Z,95
2023-04-21T02:08:05.157Z,95
2023-04-21T02:08:37.641Z,95
2023-04-21T02:09:03.299Z,95
2023-04-21T02:09:41.025Z,95
2023-04-21T02:10:08.023Z,95
2023-04-21T02:10:34.963Z,95
2023-04-21T02:10:57.781Z,95
2023-04-21T02:11:27.547Z,95
2023-04-21T02:12:00.171Z,95
2023-04-21T02:12:39.327Z,95
2023-04-21T02:13:25.265Z,95
2023-04-21T02:13:58.140Z,95
2023-04-21T02:14:29.392Z,95
2023-04-21T02:15:01.931Z,95
2023-04-21T02:15:28.218Z,95
2023-04-21T02:16:13.577Z,95
2023-04-21T02:16:32.701Z,95
2023-04-21T02:17:03.548Z,95
2023-04-21T02:17:41.764Z,95
2023-04-21T02:18:07.313Z,95
2023-04-21T02:18:41.233Z,95
2023-04-21T02:19:17.925Z,95
2023-04-21T02:19:40.355Z,95
2023-04-21T02:20:04.278Z,95
2023-04-21T02:20:31.424Z,95
2023-04-21T02:21:03.257Z,95
2023-04-21T02:21:41.826Z,95
2023-04-21T02:22:07.379Z,95
2023-04-21T02:22:34.967Z,95
2023-04-21T02:23:01.368Z,95
2023-04-21T02:23:27.307Z,95
2023-04-21T02:24:00.044Z,95
2023-04-21T02:24:31.419Z,95
2023-04-21T02:25:04.134Z,95
2023-04-21T02:25:40.917Z,95
2023-04-21T02:26:07.809Z,95
2023-04-21T02:26:41.421Z,95
2023-04-21T02:27:11.254Z,95
2023-04-21T02:27:40.942Z,95
2023-04-21T02:27:59.374Z,95
2023-04-21T02:28:38.337Z,95
2023-04-21T02:29:03.256Z,95
2023-04-21T02:29:34.962Z,95
2023-04-21T02:30:13.919Z,95
2023-04-21T02:30:42.582Z,95
2023-04-21T02:31:17.864Z,95
2023-04-21T02:31:40.470Z,95
2023-04-21T02:32:07.797Z,95
2023-04-21T02:32:31.617Z,95
2023-04-21T02:33:03.826Z,95
2023-04-21T02:33:35.396Z,95
2023-04-21T02:34:08.290Z,95
2023-04-21T02:34:35.455Z,95
2023-04-21T02:34:58.349Z,95
2023-04-21T02:35:33.750Z,95
2023-04-21T02:36:05.489Z,95
2023-04-21T02:36:37.265Z,95
2023-04-21T02:37:03.270Z,95
2023-04-21T02:37:41.651Z,95
2023-04-21T02:38:07.296Z,95
2023-04-21T02:38:41.305Z,95
2023-04-21T02:39:11.284Z,95
2023-04-21T02:39:41.138Z,95
2023-04-21T02:40:07.051Z,95
2023-04-21T02:40:31.635Z,95
2023-04-21T02:41:03.718Z,95
2023-04-21T02:41:34.963Z,95
2023-04-21T02:42:13.409Z,95
2023-04-21T02:42:36.431Z,95
2023-04-21T02:43:01.156Z,95
2023-04-21T02:43:27.323Z,95
2023-04-21T02:44:05.522Z,95
2023-04-21T02:44:38.348Z,95
2023-04-21T02:45:03.588Z,95
2023-04-21T02:45:35.010Z,95
2023-04-21T02:46:14.228Z,95
2023-04-21T02:46:36.679Z,95
2023-04-21T02:46:55.388Z,95
2023-04-21T02:47:28.087Z,95
2023-04-21T02:47:59.516Z,95
2023-04-21T02:48:32.196Z,95
2023-04-21T02:49:03.299Z,95
2023-04-21T02:49:41.229Z,95
2023-04-21T02:50:07.541Z,95
2023-04-21T02:50:35.695Z,95
2023-04-21T02:50:58.542Z,95
2023-04-21T02:51:33.196Z,95
2023-04-21T02:51:59.314Z,95
2023-04-21T02:52:32.099Z,95
2023-04-21T02:53:13.267Z,95
2023-04-21T02:53:40.849Z,95
2023-04-21T02:54:08.041Z,95
2023-04-21T02:54:40.837Z,95
2023-04-21T02:55:17.721Z,95
2023-04-21T02:55:41.743Z,95
2023-04-21T02:56:15.324Z,95
2023-04-21T02:56:44.416Z,95
2023-04-21T02:57:07.633Z,95
2023-04-21T02:57:34.924Z,95
2023-04-21T02:58:08.342Z,95
2023-04-21T02:58:41.456Z,95
2023-04-21T02:59:11.305Z,95
2023-04-21T02:59:40.929Z,95
2023-04-21T03:00:04.255Z,95
2023-04-21T03:00:38.313Z,95
2023-04-21T03:01:09.240Z,95
2023-04-21T03:01:34.915Z,95
2023-04-21T03:02:14.479Z,95
2023-04-21T03:02:37.025Z,95
2023-04-21T03:02:55.424Z,95
2023-04-21T03:03:33.603Z,95
2023-04-21T03:04:06.188Z,95
2023-04-21T03:04:31.550Z,95
2023-04-21T03:05:03.662Z,95
2023-04-21T03:05:41.751Z,95
2023-04-21T03:06:07.253Z,95
2023-04-21T03:06:41.213Z,95
2023-04-21T03:07:12.185Z,95
2023-04-21T03:07:34.954Z,95
2023-04-21T03:07:59.291Z,95
2023-04-21T03:08:31.387Z,95
2023-04-21T03:09:09.674Z,95
2023-04-21T03:09:36.426Z,95
2023-04-21T03:10:07.390Z,95
2023-04-21T03:10:40.921Z,95
2023-04-21T03:11:17.302Z,95
2023-04-21T03:11:49.537Z,95
2023-04-21T03:12:16.019Z,95
2023-04-21T03:12:39.579Z,95
2023-04-21T03:13:03.367Z,95
2023-04-21T03:13:41.036Z,95
2023-04-21T03:14:08.037Z,95
2023-04-21T03:14:41.160Z,95
2023-04-21T03:15:11.927Z,95
2023-04-21T03:15:41.770Z,95
2023-04-21T03:16:05.698Z,95
2023-04-21T03:16:31.382Z,95
2023-04-21T03:17:03.961Z,95
2023-04-21T03:17:40.944Z,95
2023-04-21T03:18:13.365Z,95
2023-04-21T03:18:36.092Z,95
2023-04-21T03:18:58.782Z,95
2023-04-21T03:19:33.586Z,95
2023-04-21T03:19:59.421Z,95
2023-04-21T03:20:38.472Z,95
2023-04-21T03:21:03.343Z,95
2023-04-21T03:21:41.123Z,95
2023-04-21T03:22:14.400Z,95
2023-04-21T03:22:40.798Z,95
2023-04-21T03:23:17.633Z,95
2023-04-21T03:23:41.418Z,95
2023-04-21T03:24:04.017Z,95
2023-04-21T03:24:31.372Z,95
2023-04-21T03:25:03.578Z,95
2023-04-21T03:25:35.759Z,95
2023-04-21T03:26:13.433Z,95
2023-04-21T03:26:35.944Z,95
2023-04-21T03:26:59.570Z,95
2023-04-21T03:27:27.356Z,95
2023-04-21T03:27:59.319Z,95
2023-04-21T03:28:38.226Z,95
2023-04-21T03:29:03.305Z,95
2023-04-21T03:29:41.182Z,95
2023-04-21T03:30:14.460Z,95
2023-04-21T03:30:36.830Z,95
2023-04-21T03:31:43.033Z,95
2023-04-21T03:32:49.393Z,95
2023-04-21T03:33:55.587Z,95
2023-04-21T03:35:01.924Z,95
2023-04-21T03:36:08.111Z,95
2023-04-21T03:36:24.809Z,95
2023-04-21T03:36:53.468Z,95
2023-04-21T03:37:19.327Z,95
2023-04-21T03:37:51.283Z,95
2023-04-21T03:38:29.847Z,95
2023-04-21T03:38:57.599Z,95
2023-04-21T03:39:27.371Z,95
2023-04-21T03:40:06.505Z,96
2023-04-21T03:40:31.523Z,95
2023-04-21T03:41:09.213Z,96
2023-04-21T03:41:35.013Z,96
2023-04-21T03:42:07.322Z,96
2023-04-21T03:42:41.845Z,96
2023-04-21T03:43:11.360Z,96
2023-04-21T03:43:41.089Z,96
2023-04-21T03:44:00.140Z,96
2023-04-21T03:44:37.771Z,96
2023-04-21T03:45:10.574Z,96
2023-04-21T03:45:41.105Z,96
2023-04-21T03:46:07.275Z,96
2023-04-21T03:46:35.877Z,96
2023-04-21T03:46:58.099Z,96
2023-04-21T03:47:33.539Z,96
2023-04-21T03:48:05.754Z,96
2023-04-21T03:48:32.304Z,96
2023-04-21T03:49:18.097Z,96
2023-04-21T03:49:34.965Z,96
2023-04-21T03:50:13.509Z,96
2023-04-21T03:50:36.619Z,96
2023-04-21T03:51:02.023Z,96
2023-04-21T03:51:33.290Z,96
2023-04-21T03:52:02.226Z,96
2023-04-21T03:52:32.009Z,96
2023-04-21T03:53:03.349Z,96
2023-04-21T03:53:34.937Z,96
2023-04-21T03:54:07.289Z,96
2023-04-21T03:54:35.020Z,96
2023-04-21T03:54:57.989Z,96
2023-04-21T03:55:33.373Z,96
2023-04-21T03:55:59.296Z,96
2023-04-21T03:56:38.346Z,96
2023-04-21T03:57:09.172Z,96
2023-04-21T03:57:34.922Z,96
2023-04-21T03:58:14.395Z,96
2023-04-21T03:58:40.958Z,96
2023-04-21T03:59:11.245Z,96
2023-04-21T03:59:41.560Z,96
2023-04-21T04:00:15.773Z,96
2023-04-21T04:00:40.982Z,96
2023-04-21T04:01:04.036Z,96
2023-04-21T04:01:34.980Z,96
2023-04-21T04:02:07.324Z,96
2023-04-21T04:02:41.954Z,96
2023-04-21T04:03:20.465Z,96
2023-04-21T04:03:44.262Z,96
2023-04-21T04:04:05.353Z,96
2023-04-21T04:04:31.808Z,96
2023-04-21T04:05:03.617Z,96
2023-04-21T04:05:37.591Z,96
2023-04-21T04:06:13.568Z,96
2023-04-21T04:06:35.992Z,96
2023-04-21T04:06:59.538Z,96
2023-04-21T04:07:27.365Z,96
2023-04-21T04:07:59.421Z,96
2023-04-21T04:08:32.177Z,96
2023-04-21T04:09:09.416Z,96
2023-04-21T04:09:35.861Z,96
2023-04-21T04:10:13.745Z,96
2023-04-21T04:10:36.001Z,96
2023-04-21T04:11:01.990Z,96
2023-04-21T04:11:27.378Z,96
2023-04-21T04:11:59.275Z,96
2023-04-21T04:12:45.334Z,96
2023-04-21T04:13:07.752Z,96
2023-04-21T04:13:41.132Z,96
2023-04-21T04:14:07.311Z,96
2023-04-21T04:14:42.022Z,96
2023-04-21T04:15:17.597Z,96
2023-04-21T04:15:34.958Z,96
2023-04-21T04:15:59.540Z,96
2023-04-21T04:16:31.516Z,96
2023-04-21T04:17:09.634Z,96
2023-04-21T04:17:40.996Z,96
2023-04-21T04:18:07.300Z,96
2023-04-21T04:18:42.044Z,96
2023-04-21T04:19:17.264Z,96
2023-04-21T04:19:39.996Z,96
2023-04-21T04:20:02.501Z,96
2023-04-21T04:20:31.717Z,96
2023-04-21T04:21:03.302Z,96
2023-04-21T04:21:42.114Z,96
2023-04-21T04:22:07.626Z,96
2023-04-21T04:22:35.124Z,96
2023-04-21T04:23:01.253Z,96
2023-04-21T04:23:27.318Z,96
2023-04-21T04:23:59.338Z,96
2023-04-21T04:24:32.010Z,96
2023-04-21T04:25:10.528Z,96
2023-04-21T04:25:35.750Z,96
2023-04-21T04:26:08.283Z,96
2023-04-21T04:26:41.523Z,96
2023-04-21T04:27:11.414Z,96
2023-04-21T04:27:40.881Z,96
2023-04-21T04:28:03.574Z,96
2023-04-21T04:28:32.125Z,96
2023-04-21T04:29:09.694Z,96
2023-04-21T04:29:35.018Z,96
2023-04-21T04:30:14.013Z,96
2023-04-21T04:30:40.990Z,96
2023-04-21T04:31:18.636Z,96
2023-04-21T04:31:41.485Z,96
2023-04-21T04:32:03.941Z,96
2023-04-21T04:32:37.558Z,96
2023-04-21T04:33:03.712Z,96
2023-04-21T04:33:41.906Z,96
2023-04-21T04:34:13.265Z,96
2023-04-21T04:34:35.145Z,96
2023-04-21T04:34:55.537Z,96
2023-04-21T04:35:33.820Z,96
2023-04-21T04:36:05.360Z,96
2023-04-21T04:36:37.468Z,96
2023-04-21T04:37:09.858Z,96
2023-04-21T04:37:41.783Z,96
2023-04-21T04:38:07.458Z,96
2023-04-21T04:38:35.261Z,96
2023-04-21T04:39:01.565Z,96
2023-04-21T04:39:27.462Z,96
2023-04-21T04:40:06.209Z,96
2023-04-21T04:40:38.405Z,96
2023-04-21T04:41:03.527Z,96
2023-04-21T04:41:35.090Z,96
2023-04-21T04:42:36.897Z,96
2023-04-21T04:43:01.595Z,96
2023-04-21T04:43:33.691Z,96
2023-04-21T04:44:06.463Z,96
2023-04-21T04:44:37.350Z,96
2023-04-21T04:45:19.746Z,96
2023-04-21T04:45:57.909Z,96
2023-04-21T04:46:23.528Z,96
2023-04-21T04:46:47.137Z,96
2023-04-21T04:47:17.331Z,96
2023-04-21T04:47:39.960Z,96
2023-04-21T04:48:03.345Z,96
2023-04-21T04:48:37.919Z,96
2023-04-21T04:49:03.463Z,96
2023-04-21T04:49:41.816Z,96
2023-04-21T04:50:07.616Z,96
2023-04-21T04:50:35.210Z,96
2023-04-21T04:50:57.848Z,96
2023-04-21T04:51:27.486Z,96
2023-04-21T04:52:05.343Z,96
2023-04-21T04:52:33.267Z,96
2023-04-21T04:53:09.949Z,96
2023-04-21T04:53:35.166Z,96
2023-04-21T04:54:13.577Z,97
2023-04-21T04:54:41.177Z,97
2023-04-21T04:55:11.723Z,97
2023-04-21T04:55:35.907Z,97
2023-04-21T04:55:59.660Z,96
2023-04-21T04:56:37.676Z,96
2023-04-21T04:57:03.583Z,97
2023-04-21T04:57:35.173Z,96
2023-04-21T04:58:07.440Z,97
2023-04-21T04:58:41.317Z,96
2023-04-21T04:59:17.552Z,97
2023-04-21T04:59:43.447Z,97
2023-04-21T05:00:15.997Z,97
2023-04-21T05:00:41.682Z,97
2023-04-21T05:01:04.369Z,97
2023-04-21T05:01:41.208Z,97
2023-04-21T05:02:07.470Z,97
2023-04-21T05:02:35.510Z,97
2023-04-21T05:02:55.523Z,96
2023-04-21T05:03:33.925Z,96
2023-04-21T05:03:59.700Z,96
2023-04-21T05:04:37.649Z,96
2023-04-21T05:05:10.894Z,96
2023-04-21T05:05:41.250Z,96
2023-04-21T05:06:13.732Z,96
2023-04-21T05:06:36.894Z,96
2023-04-21T05:07:01.321Z,96
2023-04-21T05:07:33.244Z,96
2023-04-21T05:08:06.229Z,96
2023-04-21T05:08:37.357Z,96
2023-04-21T05:09:03.499Z,96
2023-04-21T05:09:36.487Z,96
2023-04-21T05:10:07.633Z,96
2023-04-21T05:10:35.128Z,96
2023-04-21T05:10:58.879Z,96
2023-04-21T05:11:27.533Z,96
2023-04-21T05:11:59.509Z,96
2023-04-21T05:12:38.548Z,96
2023-04-21T05:13:09.576Z,96
2023-04-21T05:13:37.442Z,96
2023-04-21T05:14:09.293Z,96
2023-04-21T05:14:35.513Z,96
2023-04-21T05:15:12.454Z,96
2023-04-21T05:15:34.877Z,96
2023-04-21T05:16:05.616Z,96
2023-04-21T05:16:31.603Z,96
2023-04-21T05:17:04.179Z,96
2023-04-21T05:17:41.260Z,96
2023-04-21T05:18:13.491Z,96
2023-04-21T05:18:38.670Z,96
2023-04-21T05:18:59.835Z,96
2023-04-21T05:19:27.465Z,96
2023-04-21T05:20:06.416Z,96
2023-04-21T05:20:38.722Z,96
2023-04-21T05:21:09.387Z,96
2023-04-21T05:21:41.150Z,96
2023-04-21T05:22:08.607Z,96
2023-04-21T05:22:35.357Z,96
2023-04-21T05:22:57.629Z,96
2023-04-21T05:23:27.565Z,96
2023-04-21T05:24:05.515Z,96
2023-04-21T05:24:37.767Z,96
2023-04-21T05:25:10.841Z,96
2023-04-21T05:25:35.490Z,96
2023-04-21T05:26:07.483Z,96
2023-04-21T05:26:35.172Z,96
2023-04-21T05:26:55.624Z,96
2023-04-21T05:27:34.597Z,96
2023-04-21T05:28:05.441Z,96
2023-04-21T05:28:37.523Z,96
2023-04-21T05:29:04.340Z,96
2023-04-21T05:29:35.169Z,96
2023-04-21T05:30:14.384Z,96
2023-04-21T05:30:41.039Z,96
2023-04-21T05:31:17.660Z,96
2023-04-21T05:31:41.632Z,96
2023-04-21T05:32:21.513Z,96
2023-04-21T05:32:38.779Z,96
2023-04-21T05:33:10.368Z,96
2023-04-21T05:33:35.266Z,96
2023-04-21T05:34:08.576Z,96
2023-04-21T05:34:42.073Z,96
2023-04-21T05:35:17.982Z,96
2023-04-21T05:35:40.147Z,96
2023-04-21T05:36:03.543Z,96
2023-04-21T05:36:31.783Z,96
2023-04-21T05:37:03.516Z,96
2023-04-21T05:37:36.922Z,96
2023-04-21T05:38:13.803Z,96
2023-04-21T05:38:41.209Z,96
2023-04-21T05:39:11.466Z,96
2023-04-21T05:39:35.093Z,96
2023-04-21T05:40:06.378Z,96
2023-04-21T05:40:31.621Z,96
2023-04-21T05:41:09.873Z,96
2023-04-21T05:41:41.943Z,96
2023-04-21T05:42:13.778Z,96
2023-04-21T05:42:36.490Z,96
2023-04-21T05:42:55.527Z,96
2023-04-21T05:43:33.576Z,96
2023-04-21T05:43:59.491Z,96
2023-04-21T05:44:31.590Z,96
2023-04-21T05:45:09.901Z,96
2023-04-21T05:45:41.528Z,96
2023-04-21T05:46:07.476Z,96
2023-04-21T05:46:42.156Z,96
2023-04-21T05:47:17.998Z,96
2023-04-21T05:47:40.470Z,96
2023-04-21T05:48:04.116Z,96
2023-04-21T05:48:31.997Z,96
2023-04-21T05:49:03.454Z,96
2023-04-21T05:49:35.924Z,96
2023-04-21T05:50:13.735Z,96
2023-04-21T05:50:36.253Z,96
2023-04-21T05:50:59.715Z,96
2023-04-21T05:51:27.533Z,96
2023-04-21T05:51:59.479Z,96
2023-04-21T05:52:32.512Z,96
2023-04-21T05:53:09.911Z,96
2023-04-21T05:53:35.182Z,96
2023-04-21T05:54:14.125Z,96
2023-04-21T05:54:36.859Z,96
2023-04-21T05:54:55.501Z,96
2023-04-21T05:55:33.877Z,96
2023-04-21T05:56:06.414Z,96
2023-04-21T05:56:37.508Z,96
2023-04-21T05:57:03.515Z,96
2023-04-21T05:57:36.641Z,96
2023-04-21T05:58:13.532Z,96
2023-04-21T05:58:36.235Z,96
2023-04-21T05:58:58.804Z,96
2023-04-21T05:59:33.833Z,96
2023-04-21T05:59:59.486Z,96
2023-04-21T06:00:32.647Z,96
2023-04-21T06:01:09.752Z,96
2023-04-21T06:01:35.258Z,96
2023-04-21T06:02:13.932Z,96
2023-04-21T06:02:41.057Z,96
2023-04-21T06:03:18.797Z,96
2023-04-21T06:03:35.667Z,96
2023-04-21T06:03:59.638Z,96
2023-04-21T06:04:38.149Z,96
2023-04-21T06:05:10.088Z,96
2023-04-21T06:05:35.940Z,96
2023-04-21T06:06:13.415Z,96
2023-04-21T06:06:40.983Z,96
2023-04-21T06:07:11.608Z,95
2023-04-21T06:07:41.034Z,95
2023-04-21T06:07:59.450Z,95
2023-04-21T06:08:37.532Z,95
2023-04-21T06:09:03.531Z,95
2023-04-21T06:09:41.298Z,95
2023-04-21T06:10:13.900Z,95
2023-04-21T06:10:41.049Z,95
2023-04-21T06:11:17.792Z,95
2023-04-21T06:11:40.925Z,95
2023-04-21T06:12:15.586Z,95
2023-04-21T06:12:35.943Z,95
2023-04-21T06:13:04.186Z,95
2023-04-21T06:13:43.489Z,95
2023-04-21T06:14:07.431Z,95
2023-04-21T06:14:35.275Z,95
2023-04-21T06:14:55.516Z,95
2023-04-21T06:15:34.096Z,95
2023-04-21T06:16:05.421Z,94
2023-04-21T06:16:38.149Z,94
2023-04-21T06:17:04.246Z,94
2023-04-21T06:17:35.134Z,94
2023-04-21T06:18:14.040Z,94
2023-04-21T06:18:35.428Z,94
2023-04-21T06:18:57.553Z,94
2023-04-21T06:19:33.750Z,94
2023-04-21T06:19:59.508Z,94
2023-04-21T06:20:38.110Z,94
2023-04-21T06:21:10.386Z,94
2023-04-21T06:21:41.122Z,94
2023-04-21T06:22:13.827Z,94
2023-04-21T06:22:37.187Z,94
2023-04-21T06:23:11.465Z,94
2023-04-21T06:23:42.191Z,94
2023-04-21T06:24:05.398Z,93
2023-04-21T06:24:37.417Z,93
2023-04-21T06:25:09.842Z,93
2023-04-21T06:25:35.929Z,93
2023-04-21T06:26:13.653Z,93
2023-04-21T06:26:41.066Z,93
2023-04-21T06:27:18.654Z,93
2023-04-21T06:27:34.959Z,93
2023-04-21T06:28:15.470Z,93
2023-04-21T06:28:35.414Z,93
2023-04-21T06:29:04.141Z,93
2023-04-21T06:29:41.229Z,93
2023-04-21T06:30:07.651Z,93
2023-04-21T06:30:35.991Z,93
2023-04-21T06:30:59.074Z,93
2023-04-21T06:31:33.430Z,93
2023-04-21T06:32:15.708Z,93
2023-04-21T06:32:41.257Z,93
2023-04-21T06:33:09.693Z,93
2023-04-21T06:33:42.281Z,93
2023-04-21T06:34:07.701Z,93
2023-04-21T06:34:35.302Z,93
2023-04-21T06:34:58.241Z,93
2023-04-21T06:35:27.754Z,93
2023-04-21T06:36:05.815Z,93
2023-04-21T06:36:32.401Z,93
2023-04-21T06:37:03.565Z,93
2023-04-21T06:37:35.093Z,93
2023-04-21T06:38:08.279Z,93
2023-04-21T06:38:41.300Z,93
2023-04-21T06:39:11.878Z,93
2023-04-21T06:39:36.651Z,93
2023-04-21T06:39:59.533Z,93
2023-04-21T06:40:32.120Z,93
2023-04-21T06:41:03.504Z,93
2023-04-21T06:41:35.161Z,93
2023-04-21T06:42:07.506Z,93
2023-04-21T06:42:36.061Z,93
2023-04-21T06:42:57.110Z,93
2023-04-21T06:43:27.546Z,92
2023-04-21T06:43:59.674Z,92
2023-04-21T06:44:31.678Z,92
2023-04-21T06:45:03.836Z,92
2023-04-21T06:45:35.538Z,92
2023-04-21T06:46:07.578Z,92
2023-04-21T06:46:36.005Z,92
2023-04-21T06:47:01.518Z,92
2023-04-21T06:47:27.991Z,92
2023-04-21T06:47:59.821Z,92
2023-04-21T06:48:32.042Z,92
2023-04-21T06:49:03.563Z,92
2023-04-21T06:49:35.432Z,92
2023-04-21T06:50:14.129Z,92
2023-04-21T06:50:36.168Z,92
2023-04-21T06:50:56.416Z,92
2023-04-21T06:51:33.544Z,92
2023-04-21T06:51:59.460Z,92
2023-04-21T06:52:31.698Z,92
2023-04-21T06:53:09.539Z,92
2023-04-21T06:53:35.780Z,92
2023-04-21T06:54:13.654Z,91
2023-04-21T06:54:36.930Z,91
2023-04-21T06:54:59.511Z,91
2023-04-21T06:55:33.812Z,91
2023-04-21T06:55:59.566Z,91
2023-04-21T06:56:32.860Z,91
2023-04-21T06:57:09.805Z,91
2023-04-21T06:57:35.146Z,91
2023-04-21T06:58:07.432Z,91
2023-04-21T06:58:41.250Z,90
2023-04-21T06:59:17.993Z,90
2023-04-21T06:59:35.127Z,90
2023-04-21T07:00:06.199Z,90
2023-04-21T07:00:35.900Z,90
2023-04-21T07:01:03.669Z,90
2023-04-21T07:01:58.468Z,89
2023-04-21T07:02:23.593Z,89
2023-04-21T07:02:56.238Z,89
2023-04-21T07:03:28.566Z,89
2023-04-21T07:03:59.888Z,89
2023-04-21T07:04:32.532Z,89
2023-04-21T07:05:03.883Z,89
2023-04-21T07:05:36.007Z,89
2023-04-21T07:06:07.658Z,89
2023-04-21T07:06:35.396Z,89
2023-04-21T07:07:08.277Z,89
2023-04-21T07:07:27.690Z,89
2023-04-21T07:07:59.548Z,89
2023-04-21T07:08:32.511Z,88
2023-04-21T07:09:03.583Z,88
2023-04-21T07:09:35.847Z,88
2023-04-21T07:10:07.804Z,88
2023-04-21T07:10:35.308Z,88
2023-04-21T07:10:55.689Z,88
2023-04-21T07:11:27.414Z,88
2023-04-21T07:12:00.256Z,87
2023-04-21T07:12:31.737Z,87